Terminal Aerodrome Forecast
Issued by NWS Cleveland, OH

Home | Current Version | Previous Version | Graphics & Text | Print | Product List | Glossary On
Versions: 1 2 3 4 5 6 7 8 9 10 11 12 13 14 15 16 17 18 19 20 21 22 23 24 25 26 27
083
FTUS41 KCLE 121554 AAA
TAFCLE
TAF AMD
KCLE 121554Z 1216/1318 22010KT P6SM SCT045 OVC120
     FM121800 24014G24KT 6SM -SN OVC035
     FM122100 26016G30KT 2SM -SN OVC025
      TEMPO 1222/1224 1/2SM SN BLSN OVC012
     FM130100 32016G26KT 4SM -SN OVC025=

USA.gov is the U.S. government's official web portal to all federal, state and local government web resources and services.